Weather at Monastir Habib Bourguiba International Airport

Public forecast

Using degrees Celsius for public forecast. Weather courtesy of forecast.io.

Current aviation weather report (METAR) for Monastir Habib Bourguiba International Airport

2024/05/26 15:00 (retrieved 37 minutes ago)

DTMB 261500Z 07013KT CAVOK 26/14 Q1018

Aviation forecast (TAF) for Monastir Habib Bourguiba International Airport

2024/05/26 12:15 (retrieved 3 hours ago)

TAF DTMB 261100Z 2612/2712 01008KT CAVOK BECMG 2616/2618 08015KT PROB30 TEMPO 2703/2707 3000 BR FEW010